sensor_id;sensor_type;location;lat;lon;timestamp;P1;durP1;ratioP1;P2;durP2;ratioP2
55589;SDS011;41452;42.780;23.116;2023-03-20T00:00:43;7.18;;;4.07;;
55589;SDS011;41452;42.780;23.116;2023-03-20T00:03:11;8.82;;;4.63;;
55589;SDS011;41452;42.780;23.116;2023-03-20T00:05:37;10.15;;;4.00;;
55589;SDS011;41452;42.780;23.116;2023-03-20T00:08:03;9.02;;;4.47;;
55589;SDS011;41452;42.780;23.116;2023-03-20T00:10:31;9.73;;;4.35;;
55589;SDS011;41452;42.780;23.116;2023-03-20T00:13:00;10.60;;;4.20;;
55589;SDS011;41452;42.780;23.116;2023-03-20T00:15:36;7.82;;;4.88;;
55589;SDS011;41452;42.780;23.116;2023-03-20T00:18:03;11.80;;;4.35;;
55589;SDS011;41452;42.780;23.116;2023-03-20T00:20:42;9.68;;;4.30;;
55589;SDS011;41452;42.780;23.116;2023-03-20T00:23:09;11.88;;;4.40;;
55589;SDS011;41452;42.780;23.116;2023-03-20T00:25:34;8.82;;;4.43;;
55589;SDS011;41452;42.780;23.116;2023-03-20T00:28:02;11.48;;;4.15;;
55589;SDS011;41452;42.780;23.116;2023-03-20T00:30:47;10.02;;;4.90;;
55589;SDS011;41452;42.780;23.116;2023-03-20T00:33:13;13.18;;;5.25;;
55589;SDS011;41452;42.780;23.116;2023-03-20T00:35:38;13.10;;;4.78;;
55589;SDS011;41452;42.780;23.116;2023-03-20T00:38:04;11.73;;;5.25;;
55589;SDS011;41452;42.780;23.116;2023-03-20T00:40:30;9.20;;;4.95;;
55589;SDS011;41452;42.780;23.116;2023-03-20T00:43:00;11.95;;;5.10;;
55589;SDS011;41452;42.780;23.116;2023-03-20T00:45:27;7.35;;;4.18;;
55589;SDS011;41452;42.780;23.116;2023-03-20T00:47:54;8.57;;;4.30;;
55589;SDS011;41452;42.780;23.116;2023-03-20T00:50:23;8.82;;;4.88;;
55589;SDS011;41452;42.780;23.116;2023-03-20T00:52:51;9.95;;;4.85;;
55589;SDS011;41452;42.780;23.116;2023-03-20T00:55:17;16.45;;;5.55;;
55589;SDS011;41452;42.780;23.116;2023-03-20T00:57:49;10.18;;;4.97;;
55589;SDS011;41452;42.780;23.116;2023-03-20T01:03:05;11.95;;;5.50;;
55589;SDS011;41452;42.780;23.116;2023-03-20T01:05:37;10.93;;;5.75;;
55589;SDS011;41452;42.780;23.116;2023-03-20T01:08:04;12.35;;;5.13;;
55589;SDS011;41452;42.780;23.116;2023-03-20T01:10:35;11.43;;;4.63;;
55589;SDS011;41452;42.780;23.116;2023-03-20T01:13:01;9.50;;;4.78;;
55589;SDS011;41452;42.780;23.116;2023-03-20T01:15:29;11.98;;;5.22;;
55589;SDS011;41452;42.780;23.116;2023-03-20T01:17:56;13.68;;;5.20;;
55589;SDS011;41452;42.780;23.116;2023-03-20T01:20:23;10.70;;;5.18;;
55589;SDS011;41452;42.780;23.116;2023-03-20T01:22:51;11.40;;;5.40;;
55589;SDS011;41452;42.780;23.116;2023-03-20T01:25:17;9.65;;;4.88;;
55589;SDS011;41452;42.780;23.116;2023-03-20T01:27:44;9.68;;;4.40;;
55589;SDS011;41452;42.780;23.116;2023-03-20T01:30:17;10.85;;;4.93;;
55589;SDS011;41452;42.780;23.116;2023-03-20T01:32:45;9.68;;;4.55;;
55589;SDS011;41452;42.780;23.116;2023-03-20T01:35:12;8.98;;;4.68;;
55589;SDS011;41452;42.780;23.116;2023-03-20T01:37:39;10.90;;;4.80;;
55589;SDS011;41452;42.780;23.116;2023-03-20T01:40:08;10.45;;;3.97;;
55589;SDS011;41452;42.780;23.116;2023-03-20T01:42:41;13.63;;;4.43;;
55589;SDS011;41452;42.780;23.116;2023-03-20T01:45:14;15.48;;;5.45;;
55589;SDS011;41452;42.780;23.116;2023-03-20T01:47:43;7.45;;;4.00;;
55589;SDS011;41452;42.780;23.116;2023-03-20T01:52:49;8.77;;;4.07;;
55589;SDS011;41452;42.780;23.116;2023-03-20T01:55:31;9.40;;;3.78;;
55589;SDS011;41452;42.780;23.116;2023-03-20T01:57:59;14.20;;;4.78;;
55589;SDS011;41452;42.780;23.116;2023-03-20T02:00:30;10.65;;;4.68;;
55589;SDS011;41452;42.780;23.116;2023-03-20T02:02:56;11.73;;;4.55;;
55589;SDS011;41452;42.780;23.116;2023-03-20T02:05:22;8.95;;;4.43;;
55589;SDS011;41452;42.780;23.116;2023-03-20T02:07:50;8.43;;;4.03;;
55589;SDS011;41452;42.780;23.116;2023-03-20T02:10:23;9.52;;;3.90;;
55589;SDS011;41452;42.780;23.116;2023-03-20T02:12:48;9.70;;;4.18;;
55589;SDS011;41452;42.780;23.116;2023-03-20T02:15:15;7.90;;;4.60;;
55589;SDS011;41452;42.780;23.116;2023-03-20T02:17:41;10.68;;;4.18;;
55589;SDS011;41452;42.780;23.116;2023-03-20T02:23:44;10.10;;;3.75;;
55589;SDS011;41452;42.780;23.116;2023-03-20T02:26:44;7.00;;;3.58;;
55589;SDS011;41452;42.780;23.116;2023-03-20T02:40:19;7.00;;;3.90;;
55589;SDS011;41452;42.780;23.116;2023-03-20T02:45:27;18.83;;;4.65;;
55589;SDS011;41452;42.780;23.116;2023-03-20T02:51:24;7.07;;;3.70;;
55589;SDS011;41452;42.780;23.116;2023-03-20T03:01:10;7.35;;;3.90;;
55589;SDS011;41452;42.780;23.116;2023-03-20T03:03:43;5.63;;;3.33;;
55589;SDS011;41452;42.780;23.116;2023-03-20T03:06:29;9.55;;;4.60;;
55589;SDS011;41452;42.780;23.116;2023-03-20T03:09:00;10.80;;;4.18;;
55589;SDS011;41452;42.780;23.116;2023-03-20T03:11:39;8.57;;;3.80;;
55589;SDS011;41452;42.780;23.116;2023-03-20T03:14:13;8.93;;;4.20;;
55589;SDS011;41452;42.780;23.116;2023-03-20T03:16:46;7.72;;;4.15;;
55589;SDS011;41452;42.780;23.116;2023-03-20T03:19:15;7.90;;;4.22;;
55589;SDS011;41452;42.780;23.116;2023-03-20T03:21:45;11.65;;;4.57;;
55589;SDS011;41452;42.780;23.116;2023-03-20T03:24:21;10.05;;;4.40;;
55589;SDS011;41452;42.780;23.116;2023-03-20T03:26:47;10.48;;;5.10;;
55589;SDS011;41452;42.780;23.116;2023-03-20T03:29:14;11.43;;;4.35;;
55589;SDS011;41452;42.780;23.116;2023-03-20T03:31:42;10.70;;;4.45;;
55589;SDS011;41452;42.780;23.116;2023-03-20T03:34:11;7.47;;;4.47;;
55589;SDS011;41452;42.780;23.116;2023-03-20T03:36:59;9.27;;;3.88;;
55589;SDS011;41452;42.780;23.116;2023-03-20T03:47:33;6.70;;;3.92;;
55589;SDS011;41452;42.780;23.116;2023-03-20T03:50:05;9.00;;;3.83;;
55589;SDS011;41452;42.780;23.116;2023-03-20T03:52:35;6.40;;;3.75;;
55589;SDS011;41452;42.780;23.116;2023-03-20T03:55:04;10.55;;;4.47;;
55589;SDS011;41452;42.780;23.116;2023-03-20T04:00:20;9.52;;;4.22;;
55589;SDS011;41452;42.780;23.116;2023-03-20T04:02:50;12.98;;;3.53;;
55589;SDS011;41452;42.780;23.116;2023-03-20T04:05:18;6.97;;;4.05;;
55589;SDS011;41452;42.780;23.116;2023-03-20T04:07:45;10.48;;;4.45;;
55589;SDS011;41452;42.780;23.116;2023-03-20T04:10:12;11.00;;;4.32;;
55589;SDS011;41452;42.780;23.116;2023-03-20T04:12:39;9.38;;;4.35;;
55589;SDS011;41452;42.780;23.116;2023-03-20T04:15:07;11.30;;;4.28;;
55589;SDS011;41452;42.780;23.116;2023-03-20T04:17:33;9.15;;;5.03;;
55589;SDS011;41452;42.780;23.116;2023-03-20T04:19:59;7.45;;;3.90;;
55589;SDS011;41452;42.780;23.116;2023-03-20T04:22:25;10.60;;;4.38;;
55589;SDS011;41452;42.780;23.116;2023-03-20T04:24:51;9.10;;;4.30;;
55589;SDS011;41452;42.780;23.116;2023-03-20T04:27:17;12.20;;;4.80;;
55589;SDS011;41452;42.780;23.116;2023-03-20T04:29:42;11.35;;;4.47;;
55589;SDS011;41452;42.780;23.116;2023-03-20T04:32:08;8.18;;;4.25;;
55589;SDS011;41452;42.780;23.116;2023-03-20T04:34:34;8.55;;;4.55;;
55589;SDS011;41452;42.780;23.116;2023-03-20T04:36:59;7.93;;;4.25;;
55589;SDS011;41452;42.780;23.116;2023-03-20T04:39:25;8.15;;;3.95;;
55589;SDS011;41452;42.780;23.116;2023-03-20T04:41:51;8.85;;;3.72;;
55589;SDS011;41452;42.780;23.116;2023-03-20T04:44:17;9.07;;;4.13;;
55589;SDS011;41452;42.780;23.116;2023-03-20T04:46:42;8.07;;;4.18;;
55589;SDS011;41452;42.780;23.116;2023-03-20T04:49:07;10.23;;;4.75;;
55589;SDS011;41452;42.780;23.116;2023-03-20T04:51:33;8.55;;;4.43;;
55589;SDS011;41452;42.780;23.116;2023-03-20T04:53:58;6.97;;;4.38;;
55589;SDS011;41452;42.780;23.116;2023-03-20T04:56:24;9.45;;;4.60;;
55589;SDS011;41452;42.780;23.116;2023-03-20T04:58:49;8.38;;;4.63;;
55589;SDS011;41452;42.780;23.116;2023-03-20T05:01:14;10.02;;;4.18;;
55589;SDS011;41452;42.780;23.116;2023-03-20T05:03:40;7.05;;;4.00;;
55589;SDS011;41452;42.780;23.116;2023-03-20T05:06:05;10.00;;;4.80;;
55589;SDS011;41452;42.780;23.116;2023-03-20T05:08:31;8.52;;;4.65;;
55589;SDS011;41452;42.780;23.116;2023-03-20T05:10:56;10.07;;;5.40;;
55589;SDS011;41452;42.780;23.116;2023-03-20T05:13:22;9.45;;;4.65;;
55589;SDS011;41452;42.780;23.116;2023-03-20T05:15:47;12.95;;;4.55;;
55589;SDS011;41452;42.780;23.116;2023-03-20T05:18:13;12.40;;;5.07;;
55589;SDS011;41452;42.780;23.116;2023-03-20T05:20:38;13.98;;;5.63;;
55589;SDS011;41452;42.780;23.116;2023-03-20T05:23:04;9.80;;;5.60;;
55589;SDS011;41452;42.780;23.116;2023-03-20T05:25:29;11.93;;;5.22;;
55589;SDS011;41452;42.780;23.116;2023-03-20T05:27:55;11.68;;;5.03;;
55589;SDS011;41452;42.780;23.116;2023-03-20T05:30:20;10.30;;;4.80;;
55589;SDS011;41452;42.780;23.116;2023-03-20T05:32:48;12.05;;;4.88;;
55589;SDS011;41452;42.780;23.116;2023-03-20T05:35:14;13.15;;;5.40;;
55589;SDS011;41452;42.780;23.116;2023-03-20T05:37:40;12.88;;;5.63;;
55589;SDS011;41452;42.780;23.116;2023-03-20T05:40:06;13.38;;;5.97;;
55589;SDS011;41452;42.780;23.116;2023-03-20T05:42:32;17.27;;;5.30;;
55589;SDS011;41452;42.780;23.116;2023-03-20T05:44:57;14.75;;;5.90;;
55589;SDS011;41452;42.780;23.116;2023-03-20T05:47:23;12.90;;;5.65;;
55589;SDS011;41452;42.780;23.116;2023-03-20T05:49:48;13.75;;;5.72;;
55589;SDS011;41452;42.780;23.116;2023-03-20T05:52:13;13.60;;;5.90;;
55589;SDS011;41452;42.780;23.116;2023-03-20T05:54:39;16.48;;;7.35;;
55589;SDS011;41452;42.780;23.116;2023-03-20T05:57:05;11.27;;;5.47;;
55589;SDS011;41452;42.780;23.116;2023-03-20T05:59:30;12.15;;;5.55;;
55589;SDS011;41452;42.780;23.116;2023-03-20T06:01:56;11.10;;;5.40;;
55589;SDS011;41452;42.780;23.116;2023-03-20T06:04:21;17.15;;;6.43;;
55589;SDS011;41452;42.780;23.116;2023-03-20T06:06:47;13.02;;;5.65;;
55589;SDS011;41452;42.780;23.116;2023-03-20T06:09:12;11.55;;;6.55;;
55589;SDS011;41452;42.780;23.116;2023-03-20T06:11:37;15.93;;;7.55;;
55589;SDS011;41452;42.780;23.116;2023-03-20T06:14:03;17.13;;;7.57;;
55589;SDS011;41452;42.780;23.116;2023-03-20T06:16:28;21.50;;;9.48;;
55589;SDS011;41452;42.780;23.116;2023-03-20T06:18:53;24.73;;;11.70;;
55589;SDS011;41452;42.780;23.116;2023-03-20T06:21:19;25.55;;;10.73;;
55589;SDS011;41452;42.780;23.116;2023-03-20T06:23:45;16.92;;;8.90;;
55589;SDS011;41452;42.780;23.116;2023-03-20T06:26:11;20.50;;;9.85;;
55589;SDS011;41452;42.780;23.116;2023-03-20T06:28:36;20.70;;;9.35;;
55589;SDS011;41452;42.780;23.116;2023-03-20T06:31:01;20.35;;;9.27;;
55589;SDS011;41452;42.780;23.116;2023-03-20T06:33:27;18.50;;;9.70;;
55589;SDS011;41452;42.780;23.116;2023-03-20T06:35:52;25.98;;;10.18;;
55589;SDS011;41452;42.780;23.116;2023-03-20T06:38:18;21.20;;;10.13;;
55589;SDS011;41452;42.780;23.116;2023-03-20T06:40:44;18.60;;;9.73;;
55589;SDS011;41452;42.780;23.116;2023-03-20T06:43:09;18.85;;;10.07;;
55589;SDS011;41452;42.780;23.116;2023-03-20T06:45:36;26.02;;;10.38;;
55589;SDS011;41452;42.780;23.116;2023-03-20T06:48:04;19.48;;;9.55;;
55589;SDS011;41452;42.780;23.116;2023-03-20T06:50:31;22.13;;;10.13;;
55589;SDS011;41452;42.780;23.116;2023-03-20T06:52:56;15.32;;;9.23;;
55589;SDS011;41452;42.780;23.116;2023-03-20T06:55:22;24.33;;;9.95;;
55589;SDS011;41452;42.780;23.116;2023-03-20T06:57:47;20.67;;;10.18;;
55589;SDS011;41452;42.780;23.116;2023-03-20T07:00:13;28.77;;;11.88;;
55589;SDS011;41452;42.780;23.116;2023-03-20T07:02:38;20.77;;;10.43;;
55589;SDS011;41452;42.780;23.116;2023-03-20T07:05:04;18.15;;;10.75;;
55589;SDS011;41452;42.780;23.116;2023-03-20T07:07:30;18.20;;;9.57;;
55589;SDS011;41452;42.780;23.116;2023-03-20T07:09:55;29.73;;;9.27;;
55589;SDS011;41452;42.780;23.116;2023-03-20T07:12:21;14.85;;;8.82;;
55589;SDS011;41452;42.780;23.116;2023-03-20T07:14:50;17.05;;;8.23;;
55589;SDS011;41452;42.780;23.116;2023-03-20T07:17:15;16.55;;;8.38;;
55589;SDS011;41452;42.780;23.116;2023-03-20T07:19:41;14.50;;;8.20;;
55589;SDS011;41452;42.780;23.116;2023-03-20T07:22:06;14.48;;;7.15;;
55589;SDS011;41452;42.780;23.116;2023-03-20T07:24:39;14.57;;;7.72;;
55589;SDS011;41452;42.780;23.116;2023-03-20T07:27:05;15.70;;;7.97;;
55589;SDS011;41452;42.780;23.116;2023-03-20T07:29:30;16.80;;;7.68;;
55589;SDS011;41452;42.780;23.116;2023-03-20T07:31:56;16.15;;;8.07;;
55589;SDS011;41452;42.780;23.116;2023-03-20T07:34:21;24.17;;;9.10;;
55589;SDS011;41452;42.780;23.116;2023-03-20T07:36:46;15.73;;;8.20;;
55589;SDS011;41452;42.780;23.116;2023-03-20T07:39:12;24.95;;;8.90;;
55589;SDS011;41452;42.780;23.116;2023-03-20T07:41:38;15.52;;;8.93;;
55589;SDS011;41452;42.780;23.116;2023-03-20T07:44:03;14.65;;;7.80;;
55589;SDS011;41452;42.780;23.116;2023-03-20T07:46:29;16.98;;;9.30;;
55589;SDS011;41452;42.780;23.116;2023-03-20T07:48:54;15.40;;;8.43;;
55589;SDS011;41452;42.780;23.116;2023-03-20T07:51:22;19.52;;;9.60;;
55589;SDS011;41452;42.780;23.116;2023-03-20T07:53:47;22.33;;;10.15;;
55589;SDS011;41452;42.780;23.116;2023-03-20T07:56:13;22.20;;;9.98;;
55589;SDS011;41452;42.780;23.116;2023-03-20T07:58:38;21.95;;;8.98;;
55589;SDS011;41452;42.780;23.116;2023-03-20T08:01:04;18.42;;;9.38;;
55589;SDS011;41452;42.780;23.116;2023-03-20T08:03:29;15.63;;;8.65;;
55589;SDS011;41452;42.780;23.116;2023-03-20T08:05:55;16.15;;;8.40;;
55589;SDS011;41452;42.780;23.116;2023-03-20T08:08:21;12.65;;;7.22;;
55589;SDS011;41452;42.780;23.116;2023-03-20T08:10:46;16.73;;;8.35;;
55589;SDS011;41452;42.780;23.116;2023-03-20T08:13:12;14.70;;;7.35;;
55589;SDS011;41452;42.780;23.116;2023-03-20T08:15:37;16.52;;;7.18;;
55589;SDS011;41452;42.780;23.116;2023-03-20T08:18:03;16.52;;;6.90;;
55589;SDS011;41452;42.780;23.116;2023-03-20T08:20:28;16.25;;;7.30;;
55589;SDS011;41452;42.780;23.116;2023-03-20T08:22:55;16.50;;;6.97;;
55589;SDS011;41452;42.780;23.116;2023-03-20T08:25:21;10.43;;;6.40;;
55589;SDS011;41452;42.780;23.116;2023-03-20T08:27:47;12.18;;;6.68;;
55589;SDS011;41452;42.780;23.116;2023-03-20T08:30:13;11.52;;;6.25;;
55589;SDS011;41452;42.780;23.116;2023-03-20T08:32:39;14.60;;;7.00;;
55589;SDS011;41452;42.780;23.116;2023-03-20T08:35:04;12.82;;;7.65;;
55589;SDS011;41452;42.780;23.116;2023-03-20T08:37:30;15.23;;;7.60;;
55589;SDS011;41452;42.780;23.116;2023-03-20T08:39:55;14.35;;;7.03;;
55589;SDS011;41452;42.780;23.116;2023-03-20T08:42:21;15.38;;;6.40;;
55589;SDS011;41452;42.780;23.116;2023-03-20T08:44:46;13.48;;;6.68;;
55589;SDS011;41452;42.780;23.116;2023-03-20T08:47:12;17.48;;;6.57;;
55589;SDS011;41452;42.780;23.116;2023-03-20T08:49:38;10.63;;;5.50;;
55589;SDS011;41452;42.780;23.116;2023-03-20T08:52:03;14.43;;;6.80;;
55589;SDS011;41452;42.780;23.116;2023-03-20T08:54:28;12.35;;;6.60;;
55589;SDS011;41452;42.780;23.116;2023-03-20T08:56:54;11.88;;;6.38;;
55589;SDS011;41452;42.780;23.116;2023-03-20T08:59:20;13.63;;;6.43;;
55589;SDS011;41452;42.780;23.116;2023-03-20T09:01:46;16.48;;;6.57;;
55589;SDS011;41452;42.780;23.116;2023-03-20T09:04:12;13.27;;;5.63;;
55589;SDS011;41452;42.780;23.116;2023-03-20T09:06:38;12.98;;;6.45;;
55589;SDS011;41452;42.780;23.116;2023-03-20T09:09:04;12.55;;;6.13;;
55589;SDS011;41452;42.780;23.116;2023-03-20T09:11:30;9.93;;;5.70;;
55589;SDS011;41452;42.780;23.116;2023-03-20T09:13:56;11.15;;;5.45;;
55589;SDS011;41452;42.780;23.116;2023-03-20T09:16:21;13.32;;;5.97;;
55589;SDS011;41452;42.780;23.116;2023-03-20T09:18:47;10.30;;;5.25;;
55589;SDS011;41452;42.780;23.116;2023-03-20T09:21:12;12.95;;;5.43;;
55589;SDS011;41452;42.780;23.116;2023-03-20T09:23:38;10.70;;;5.63;;
55589;SDS011;41452;42.780;23.116;2023-03-20T09:26:03;19.60;;;5.43;;
55589;SDS011;41452;42.780;23.116;2023-03-20T09:28:29;10.40;;;5.40;;
55589;SDS011;41452;42.780;23.116;2023-03-20T09:30:55;16.83;;;5.55;;
55589;SDS011;41452;42.780;23.116;2023-03-20T09:33:21;16.73;;;5.13;;
55589;SDS011;41452;42.780;23.116;2023-03-20T09:35:47;9.65;;;4.82;;
55589;SDS011;41452;42.780;23.116;2023-03-20T09:38:13;13.75;;;5.35;;
55589;SDS011;41452;42.780;23.116;2023-03-20T09:40:58;11.93;;;5.30;;
55589;SDS011;41452;42.780;23.116;2023-03-20T09:49:08;8.25;;;4.57;;
55589;SDS011;41452;42.780;23.116;2023-03-20T09:51:45;12.20;;;4.38;;
55589;SDS011;41452;42.780;23.116;2023-03-20T09:54:20;10.77;;;4.55;;
55589;SDS011;41452;42.780;23.116;2023-03-20T09:56:50;9.20;;;4.63;;
55589;SDS011;41452;42.780;23.116;2023-03-20T09:59:16;5.72;;;3.60;;
55589;SDS011;41452;42.780;23.116;2023-03-20T10:01:51;10.10;;;3.75;;
55589;SDS011;41452;42.780;23.116;2023-03-20T10:04:35;9.32;;;4.03;;
55589;SDS011;41452;42.780;23.116;2023-03-20T10:07:02;8.98;;;4.32;;
55589;SDS011;41452;42.780;23.116;2023-03-20T10:09:29;9.40;;;3.60;;
55589;SDS011;41452;42.780;23.116;2023-03-20T10:22:58;12.27;;;3.92;;
55589;SDS011;41452;42.780;23.116;2023-03-20T10:25:31;6.78;;;4.05;;
55589;SDS011;41452;42.780;23.116;2023-03-20T10:28:05;8.15;;;4.63;;
55589;SDS011;41452;42.780;23.116;2023-03-20T10:42:29;6.60;;;3.70;;
55589;SDS011;41452;42.780;23.116;2023-03-20T10:47:46;5.90;;;3.53;;
55589;SDS011;41452;42.780;23.116;2023-03-20T10:50:17;7.95;;;3.78;;
55589;SDS011;41452;42.780;23.116;2023-03-20T10:52:47;12.52;;;4.43;;
55589;SDS011;41452;42.780;23.116;2023-03-20T10:55:15;9.38;;;4.80;;
55589;SDS011;41452;42.780;23.116;2023-03-20T10:57:46;13.48;;;5.82;;
55589;SDS011;41452;42.780;23.116;2023-03-20T11:00:20;6.95;;;3.60;;
55589;SDS011;41452;42.780;23.116;2023-03-20T11:02:47;8.88;;;4.07;;
55589;SDS011;41452;42.780;23.116;2023-03-20T11:05:32;8.05;;;3.80;;
55589;SDS011;41452;42.780;23.116;2023-03-20T11:08:13;7.47;;;3.88;;
55589;SDS011;41452;42.780;23.116;2023-03-20T11:10:39;5.72;;;3.17;;
55589;SDS011;41452;42.780;23.116;2023-03-20T11:13:21;8.85;;;3.65;;
55589;SDS011;41452;42.780;23.116;2023-03-20T11:15:50;6.78;;;3.95;;
55589;SDS011;41452;42.780;23.116;2023-03-20T11:18:17;7.65;;;3.58;;
55589;SDS011;41452;42.780;23.116;2023-03-20T11:20:48;6.97;;;3.83;;
55589;SDS011;41452;42.780;23.116;2023-03-20T11:23:15;9.23;;;3.50;;
55589;SDS011;41452;42.780;23.116;2023-03-20T11:28:29;8.77;;;4.40;;
55589;SDS011;41452;42.780;23.116;2023-03-20T11:31:03;6.35;;;3.65;;
55589;SDS011;41452;42.780;23.116;2023-03-20T11:33:29;6.65;;;3.33;;
55589;SDS011;41452;42.780;23.116;2023-03-20T11:35:56;7.57;;;3.15;;
55589;SDS011;41452;42.780;23.116;2023-03-20T11:38:23;8.00;;;3.63;;
55589;SDS011;41452;42.780;23.116;2023-03-20T11:40:50;8.07;;;3.22;;
55589;SDS011;41452;42.780;23.116;2023-03-20T11:43:22;6.50;;;2.97;;
55589;SDS011;41452;42.780;23.116;2023-03-20T11:45:59;9.32;;;4.90;;
55589;SDS011;41452;42.780;23.116;2023-03-20T11:48:41;7.82;;;5.18;;
55589;SDS011;41452;42.780;23.116;2023-03-20T11:51:16;8.55;;;2.90;;
55589;SDS011;41452;42.780;23.116;2023-03-20T11:56:22;10.00;;;5.75;;
55589;SDS011;41452;42.780;23.116;2023-03-20T12:01:23;6.93;;;4.97;;
55589;SDS011;41452;42.780;23.116;2023-03-20T12:06:24;5.15;;;2.90;;
55589;SDS011;41452;42.780;23.116;2023-03-20T12:09:02;5.70;;;3.05;;
55589;SDS011;41452;42.780;23.116;2023-03-20T12:14:03;5.53;;;2.78;;
55589;SDS011;41452;42.780;23.116;2023-03-20T12:16:37;7.25;;;2.72;;
55589;SDS011;41452;42.780;23.116;2023-03-20T12:19:06;9.60;;;2.97;;
55589;SDS011;41452;42.780;23.116;2023-03-20T12:21:45;5.78;;;2.72;;
55589;SDS011;41452;42.780;23.116;2023-03-20T12:24:23;4.13;;;2.50;;
55589;SDS011;41452;42.780;23.116;2023-03-20T12:26:57;5.38;;;2.45;;
55589;SDS011;41452;42.780;23.116;2023-03-20T12:32:19;7.32;;;2.67;;
55589;SDS011;41452;42.780;23.116;2023-03-20T12:34:51;5.47;;;2.58;;
55589;SDS011;41452;42.780;23.116;2023-03-20T12:37:26;3.70;;;2.00;;
55589;SDS011;41452;42.780;23.116;2023-03-20T12:39:56;5.35;;;2.53;;
55589;SDS011;41452;42.780;23.116;2023-03-20T12:42:38;6.47;;;3.10;;
55589;SDS011;41452;42.780;23.116;2023-03-20T12:45:11;6.47;;;3.55;;
55589;SDS011;41452;42.780;23.116;2023-03-20T12:58:13;5.78;;;2.90;;
55589;SDS011;41452;42.780;23.116;2023-03-20T13:00:59;11.18;;;6.35;;
55589;SDS011;41452;42.780;23.116;2023-03-20T13:20:30;4.47;;;2.60;;
55589;SDS011;41452;42.780;23.116;2023-03-20T13:23:09;3.35;;;1.95;;
55589;SDS011;41452;42.780;23.116;2023-03-20T13:36:24;4.10;;;1.73;;
55589;SDS011;41452;42.780;23.116;2023-03-20T13:39:29;4.65;;;2.20;;
55589;SDS011;41452;42.780;23.116;2023-03-20T13:41:58;5.00;;;1.90;;
55589;SDS011;41452;42.780;23.116;2023-03-20T13:44:26;3.75;;;2.20;;
55589;SDS011;41452;42.780;23.116;2023-03-20T13:46:57;7.18;;;2.38;;
55589;SDS011;41452;42.780;23.116;2023-03-20T13:49:35;3.70;;;1.95;;
55589;SDS011;41452;42.780;23.116;2023-03-20T13:52:18;5.47;;;2.53;;
55589;SDS011;41452;42.780;23.116;2023-03-20T13:57:34;11.15;;;4.38;;
55589;SDS011;41452;42.780;23.116;2023-03-20T14:02:48;6.40;;;2.38;;
55589;SDS011;41452;42.780;23.116;2023-03-20T14:05:17;8.93;;;2.83;;
55589;SDS011;41452;42.780;23.116;2023-03-20T14:07:47;9.10;;;3.45;;
55589;SDS011;41452;42.780;23.116;2023-03-20T14:12:47;4.22;;;2.00;;
55589;SDS011;41452;42.780;23.116;2023-03-20T14:15:14;10.75;;;2.10;;
55589;SDS011;41452;42.780;23.116;2023-03-20T14:17:43;4.68;;;2.15;;
55589;SDS011;41452;42.780;23.116;2023-03-20T14:20:22;5.25;;;2.28;;
55589;SDS011;41452;42.780;23.116;2023-03-20T14:22:53;2.72;;;1.85;;
55589;SDS011;41452;42.780;23.116;2023-03-20T14:25:21;3.30;;;1.77;;
55589;SDS011;41452;42.780;23.116;2023-03-20T14:27:53;8.25;;;2.33;;
55589;SDS011;41452;42.780;23.116;2023-03-20T14:33:05;6.18;;;2.60;;
55589;SDS011;41452;42.780;23.116;2023-03-20T14:35:41;4.10;;;1.98;;
55589;SDS011;41452;42.780;23.116;2023-03-20T14:38:08;4.95;;;2.25;;
55589;SDS011;41452;42.780;23.116;2023-03-20T14:46:26;5.45;;;2.60;;
55589;SDS011;41452;42.780;23.116;2023-03-20T14:48:50;3.63;;;1.90;;
55589;SDS011;41452;42.780;23.116;2023-03-20T14:56:46;7.63;;;2.28;;
55589;SDS011;41452;42.780;23.116;2023-03-20T14:59:13;7.35;;;2.35;;
55589;SDS011;41452;42.780;23.116;2023-03-20T15:01:44;6.28;;;2.10;;
55589;SDS011;41452;42.780;23.116;2023-03-20T15:07:00;4.82;;;2.20;;
55589;SDS011;41452;42.780;23.116;2023-03-20T15:09:29;5.18;;;2.13;;
55589;SDS011;41452;42.780;23.116;2023-03-20T15:11:58;4.13;;;1.90;;
55589;SDS011;41452;42.780;23.116;2023-03-20T15:14:28;5.28;;;2.33;;
55589;SDS011;41452;42.780;23.116;2023-03-20T15:16:59;4.63;;;2.70;;
55589;SDS011;41452;42.780;23.116;2023-03-20T15:19:26;8.32;;;2.67;;
55589;SDS011;41452;42.780;23.116;2023-03-20T15:21:52;5.03;;;2.50;;
55589;SDS011;41452;42.780;23.116;2023-03-20T15:24:22;6.50;;;2.20;;
55589;SDS011;41452;42.780;23.116;2023-03-20T15:26:51;4.90;;;1.95;;
55589;SDS011;41452;42.780;23.116;2023-03-20T15:29:24;5.15;;;1.95;;
55589;SDS011;41452;42.780;23.116;2023-03-20T15:31:51;5.47;;;2.25;;
55589;SDS011;41452;42.780;23.116;2023-03-20T15:34:21;4.90;;;1.98;;
55589;SDS011;41452;42.780;23.116;2023-03-20T15:36:49;14.05;;;2.78;;
55589;SDS011;41452;42.780;23.116;2023-03-20T15:39:20;6.00;;;2.40;;
55589;SDS011;41452;42.780;23.116;2023-03-20T15:42:02;7.05;;;2.97;;
55589;SDS011;41452;42.780;23.116;2023-03-20T15:44:34;8.50;;;3.78;;
55589;SDS011;41452;42.780;23.116;2023-03-20T15:47:02;8.40;;;3.35;;
55589;SDS011;41452;42.780;23.116;2023-03-20T15:49:35;6.03;;;2.67;;
55589;SDS011;41452;42.780;23.116;2023-03-20T15:52:06;5.28;;;2.10;;
55589;SDS011;41452;42.780;23.116;2023-03-20T15:54:40;6.50;;;2.53;;
55589;SDS011;41452;42.780;23.116;2023-03-20T15:57:08;6.88;;;2.40;;
55589;SDS011;41452;42.780;23.116;2023-03-20T15:59:41;10.20;;;2.50;;
55589;SDS011;41452;42.780;23.116;2023-03-20T16:02:08;7.95;;;2.85;;
55589;SDS011;41452;42.780;23.116;2023-03-20T16:04:41;6.43;;;3.03;;
55589;SDS011;41452;42.780;23.116;2023-03-20T16:07:28;5.78;;;2.50;;
55589;SDS011;41452;42.780;23.116;2023-03-20T16:09:55;4.47;;;2.50;;
55589;SDS011;41452;42.780;23.116;2023-03-20T16:12:21;3.67;;;2.33;;
55589;SDS011;41452;42.780;23.116;2023-03-20T16:14:47;7.45;;;3.17;;
55589;SDS011;41452;42.780;23.116;2023-03-20T16:17:15;11.13;;;3.47;;
55589;SDS011;41452;42.780;23.116;2023-03-20T16:19:42;6.00;;;3.35;;
55589;SDS011;41452;42.780;23.116;2023-03-20T16:22:14;6.85;;;2.95;;
55589;SDS011;41452;42.780;23.116;2023-03-20T16:24:45;7.00;;;3.20;;
55589;SDS011;41452;42.780;23.116;2023-03-20T16:27:22;9.48;;;3.80;;
55589;SDS011;41452;42.780;23.116;2023-03-20T16:29:51;5.57;;;3.53;;
55589;SDS011;41452;42.780;23.116;2023-03-20T16:34:56;6.40;;;3.17;;
55589;SDS011;41452;42.780;23.116;2023-03-20T16:42:42;9.43;;;3.03;;
55589;SDS011;41452;42.780;23.116;2023-03-20T16:45:42;9.23;;;4.32;;
55589;SDS011;41452;42.780;23.116;2023-03-20T16:50:36;10.85;;;4.05;;
55589;SDS011;41452;42.780;23.116;2023-03-20T16:53:04;10.27;;;4.18;;
55589;SDS011;41452;42.780;23.116;2023-03-20T16:55:36;9.80;;;4.38;;
55589;SDS011;41452;42.780;23.116;2023-03-20T16:58:09;8.48;;;4.00;;
55589;SDS011;41452;42.780;23.116;2023-03-20T17:03:13;6.20;;;3.00;;
55589;SDS011;41452;42.780;23.116;2023-03-20T17:05:44;6.05;;;2.40;;
55589;SDS011;41452;42.780;23.116;2023-03-20T17:08:12;8.05;;;3.70;;
55589;SDS011;41452;42.780;23.116;2023-03-20T17:10:41;6.28;;;3.58;;
55589;SDS011;41452;42.780;23.116;2023-03-20T17:13:07;10.65;;;4.15;;
55589;SDS011;41452;42.780;23.116;2023-03-20T17:15:33;11.02;;;3.70;;
55589;SDS011;41452;42.780;23.116;2023-03-20T17:17:59;10.27;;;3.97;;
55589;SDS011;41452;42.780;23.116;2023-03-20T17:20:26;12.85;;;4.38;;
55589;SDS011;41452;42.780;23.116;2023-03-20T17:22:52;11.00;;;4.25;;
55589;SDS011;41452;42.780;23.116;2023-03-20T17:25:18;10.15;;;4.03;;